sensor_id;sensor_type;location;lat;lon;timestamp;P1;durP1;ratioP1;P2;durP2;ratioP2
2538;SDS011;1280;49.760;9.664;2022-12-16T00:01:17;30.05;;;16.40;;
2538;SDS011;1280;49.760;9.664;2022-12-16T00:03:48;31.48;;;16.10;;
2538;SDS011;1280;49.760;9.664;2022-12-16T00:06:21;32.47;;;16.63;;
2538;SDS011;1280;49.760;9.664;2022-12-16T00:08:49;28.90;;;16.05;;
2538;SDS011;1280;49.760;9.664;2022-12-16T00:11:18;32.97;;;17.27;;
2538;SDS011;1280;49.760;9.664;2022-12-16T00:13:47;28.23;;;16.55;;
2538;SDS011;1280;49.760;9.664;2022-12-16T00:16:17;30.00;;;16.48;;
2538;SDS011;1280;49.760;9.664;2022-12-16T00:18:46;29.13;;;16.13;;
2538;SDS011;1280;49.760;9.664;2022-12-16T00:21:17;31.33;;;17.08;;
2538;SDS011;1280;49.760;9.664;2022-12-16T00:23:46;25.58;;;15.35;;
2538;SDS011;1280;49.760;9.664;2022-12-16T00:26:14;24.70;;;14.20;;
2538;SDS011;1280;49.760;9.664;2022-12-16T00:28:42;25.58;;;13.15;;
2538;SDS011;1280;49.760;9.664;2022-12-16T00:31:10;25.80;;;13.20;;
2538;SDS011;1280;49.760;9.664;2022-12-16T00:33:40;20.20;;;11.82;;
2538;SDS011;1280;49.760;9.664;2022-12-16T00:36:08;20.92;;;12.25;;
2538;SDS011;1280;49.760;9.664;2022-12-16T00:38:36;21.77;;;12.10;;
2538;SDS011;1280;49.760;9.664;2022-12-16T00:41:04;23.55;;;12.13;;
2538;SDS011;1280;49.760;9.664;2022-12-16T00:43:33;21.05;;;10.10;;
2538;SDS011;1280;49.760;9.664;2022-12-16T00:46:01;19.50;;;9.93;;
2538;SDS011;1280;49.760;9.664;2022-12-16T00:48:29;18.80;;;10.50;;
2538;SDS011;1280;49.760;9.664;2022-12-16T00:50:59;17.65;;;10.15;;
2538;SDS011;1280;49.760;9.664;2022-12-16T00:53:27;16.83;;;9.90;;
2538;SDS011;1280;49.760;9.664;2022-12-16T00:56:00;22.40;;;9.75;;
2538;SDS011;1280;49.760;9.664;2022-12-16T00:58:28;18.85;;;10.10;;
2538;SDS011;1280;49.760;9.664;2022-12-16T01:00:56;19.55;;;10.20;;
2538;SDS011;1280;49.760;9.664;2022-12-16T01:03:24;19.88;;;10.40;;
2538;SDS011;1280;49.760;9.664;2022-12-16T01:05:53;22.10;;;10.60;;
2538;SDS011;1280;49.760;9.664;2022-12-16T01:08:22;28.58;;;10.98;;
2538;SDS011;1280;49.760;9.664;2022-12-16T01:10:50;20.48;;;11.10;;
2538;SDS011;1280;49.760;9.664;2022-12-16T01:13:21;23.55;;;10.80;;
2538;SDS011;1280;49.760;9.664;2022-12-16T01:15:50;16.35;;;9.65;;
2538;SDS011;1280;49.760;9.664;2022-12-16T01:18:19;20.85;;;11.30;;
2538;SDS011;1280;49.760;9.664;2022-12-16T01:20:47;16.25;;;9.48;;
2538;SDS011;1280;49.760;9.664;2022-12-16T01:23:15;16.23;;;9.68;;
2538;SDS011;1280;49.760;9.664;2022-12-16T01:25:45;17.35;;;10.65;;
2538;SDS011;1280;49.760;9.664;2022-12-16T01:28:18;25.58;;;11.80;;
2538;SDS011;1280;49.760;9.664;2022-12-16T01:30:46;16.50;;;10.15;;
2538;SDS011;1280;49.760;9.664;2022-12-16T01:33:14;17.27;;;10.25;;
2538;SDS011;1280;49.760;9.664;2022-12-16T01:35:43;18.65;;;10.38;;
2538;SDS011;1280;49.760;9.664;2022-12-16T01:38:21;18.50;;;10.00;;
2538;SDS011;1280;49.760;9.664;2022-12-16T01:40:50;18.45;;;10.25;;
2538;SDS011;1280;49.760;9.664;2022-12-16T01:43:21;20.20;;;10.88;;
2538;SDS011;1280;49.760;9.664;2022-12-16T01:45:53;20.25;;;10.27;;
2538;SDS011;1280;49.760;9.664;2022-12-16T01:48:29;18.67;;;10.55;;
2538;SDS011;1280;49.760;9.664;2022-12-16T01:51:03;20.50;;;10.95;;
2538;SDS011;1280;49.760;9.664;2022-12-16T01:53:34;25.92;;;12.27;;
2538;SDS011;1280;49.760;9.664;2022-12-16T01:56:05;18.80;;;10.32;;
2538;SDS011;1280;49.760;9.664;2022-12-16T01:58:34;19.98;;;11.68;;
2538;SDS011;1280;49.760;9.664;2022-12-16T02:01:06;20.88;;;10.82;;
2538;SDS011;1280;49.760;9.664;2022-12-16T02:03:34;20.23;;;10.38;;
2538;SDS011;1280;49.760;9.664;2022-12-16T02:06:04;19.58;;;10.35;;
2538;SDS011;1280;49.760;9.664;2022-12-16T02:08:33;19.30;;;10.27;;
2538;SDS011;1280;49.760;9.664;2022-12-16T02:11:13;20.40;;;12.25;;
2538;SDS011;1280;49.760;9.664;2022-12-16T02:16:58;16.23;;;9.23;;
2538;SDS011;1280;49.760;9.664;2022-12-16T02:22:35;18.58;;;10.10;;
2538;SDS011;1280;49.760;9.664;2022-12-16T02:25:28;16.23;;;9.00;;
2538;SDS011;1280;49.760;9.664;2022-12-16T02:28:15;18.02;;;9.43;;
2538;SDS011;1280;49.760;9.664;2022-12-16T02:30:59;16.70;;;9.13;;
2538;SDS011;1280;49.760;9.664;2022-12-16T02:33:46;16.98;;;8.50;;
2538;SDS011;1280;49.760;9.664;2022-12-16T02:36:23;17.63;;;9.50;;
2538;SDS011;1280;49.760;9.664;2022-12-16T02:38:58;15.13;;;9.10;;
2538;SDS011;1280;49.760;9.664;2022-12-16T02:41:33;20.02;;;10.82;;
2538;SDS011;1280;49.760;9.664;2022-12-16T02:44:09;18.17;;;10.07;;
2538;SDS011;1280;49.760;9.664;2022-12-16T02:46:40;18.80;;;11.02;;
2538;SDS011;1280;49.760;9.664;2022-12-16T02:52:11;16.92;;;9.60;;
2538;SDS011;1280;49.760;9.664;2022-12-16T02:54:41;20.50;;;10.00;;
2538;SDS011;1280;49.760;9.664;2022-12-16T02:57:12;18.45;;;8.90;;
2538;SDS011;1280;49.760;9.664;2022-12-16T02:59:51;19.30;;;8.98;;
2538;SDS011;1280;49.760;9.664;2022-12-16T03:02:29;16.58;;;9.45;;
2538;SDS011;1280;49.760;9.664;2022-12-16T03:05:03;16.70;;;9.10;;
2538;SDS011;1280;49.760;9.664;2022-12-16T03:07:36;16.63;;;9.13;;
2538;SDS011;1280;49.760;9.664;2022-12-16T03:10:07;16.45;;;8.90;;
2538;SDS011;1280;49.760;9.664;2022-12-16T03:12:40;16.50;;;9.48;;
2538;SDS011;1280;49.760;9.664;2022-12-16T03:15:10;17.85;;;9.82;;
2538;SDS011;1280;49.760;9.664;2022-12-16T03:17:42;15.27;;;8.63;;
2538;SDS011;1280;49.760;9.664;2022-12-16T03:20:14;17.10;;;8.27;;
2538;SDS011;1280;49.760;9.664;2022-12-16T03:22:46;14.27;;;8.95;;
2538;SDS011;1280;49.760;9.664;2022-12-16T03:25:16;15.40;;;8.65;;
2538;SDS011;1280;49.760;9.664;2022-12-16T03:27:48;13.80;;;8.80;;
2538;SDS011;1280;49.760;9.664;2022-12-16T03:30:24;13.45;;;8.20;;
2538;SDS011;1280;49.760;9.664;2022-12-16T03:32:58;12.23;;;6.88;;
2538;SDS011;1280;49.760;9.664;2022-12-16T03:35:31;14.80;;;7.80;;
2538;SDS011;1280;49.760;9.664;2022-12-16T03:38:03;13.25;;;7.53;;
2538;SDS011;1280;49.760;9.664;2022-12-16T03:40:33;14.23;;;6.85;;
2538;SDS011;1280;49.760;9.664;2022-12-16T03:43:03;12.35;;;7.30;;
2538;SDS011;1280;49.760;9.664;2022-12-16T03:45:34;11.25;;;6.70;;
2538;SDS011;1280;49.760;9.664;2022-12-16T03:48:06;12.25;;;6.35;;
2538;SDS011;1280;49.760;9.664;2022-12-16T03:50:36;12.80;;;7.13;;
2538;SDS011;1280;49.760;9.664;2022-12-16T03:53:06;13.48;;;6.97;;
2538;SDS011;1280;49.760;9.664;2022-12-16T03:55:34;11.25;;;6.43;;
2538;SDS011;1280;49.760;9.664;2022-12-16T03:58:02;16.30;;;8.65;;
2538;SDS011;1280;49.760;9.664;2022-12-16T04:00:30;15.07;;;7.32;;
2538;SDS011;1280;49.760;9.664;2022-12-16T04:02:58;13.38;;;6.93;;
2538;SDS011;1280;49.760;9.664;2022-12-16T04:05:28;15.85;;;8.38;;
2538;SDS011;1280;49.760;9.664;2022-12-16T04:07:55;12.27;;;6.85;;
2538;SDS011;1280;49.760;9.664;2022-12-16T04:10:27;14.38;;;7.55;;
2538;SDS011;1280;49.760;9.664;2022-12-16T04:13:13;17.17;;;9.13;;
2538;SDS011;1280;49.760;9.664;2022-12-16T04:15:59;17.90;;;8.82;;
2538;SDS011;1280;49.760;9.664;2022-12-16T04:18:45;16.63;;;7.85;;
2538;SDS011;1280;49.760;9.664;2022-12-16T04:21:32;16.52;;;9.18;;
2538;SDS011;1280;49.760;9.664;2022-12-16T04:24:18;14.75;;;8.20;;
2538;SDS011;1280;49.760;9.664;2022-12-16T04:26:47;11.13;;;6.88;;
2538;SDS011;1280;49.760;9.664;2022-12-16T04:29:41;14.38;;;7.65;;
2538;SDS011;1280;49.760;9.664;2022-12-16T04:32:23;14.50;;;7.07;;
2538;SDS011;1280;49.760;9.664;2022-12-16T04:34:51;17.65;;;8.38;;
2538;SDS011;1280;49.760;9.664;2022-12-16T04:37:19;13.30;;;7.45;;
2538;SDS011;1280;49.760;9.664;2022-12-16T04:40:05;18.23;;;8.55;;
2538;SDS011;1280;49.760;9.664;2022-12-16T04:42:51;19.17;;;7.05;;
2538;SDS011;1280;49.760;9.664;2022-12-16T04:45:37;10.23;;;5.65;;
2538;SDS011;1280;49.760;9.664;2022-12-16T04:48:23;14.02;;;7.28;;
2538;SDS011;1280;49.760;9.664;2022-12-16T04:51:23;13.38;;;6.20;;
2538;SDS011;1280;49.760;9.664;2022-12-16T04:54:09;13.15;;;6.40;;
2538;SDS011;1280;49.760;9.664;2022-12-16T04:57:10;13.48;;;7.90;;
2538;SDS011;1280;49.760;9.664;2022-12-16T04:59:55;14.13;;;7.28;;
2538;SDS011;1280;49.760;9.664;2022-12-16T05:02:41;11.98;;;6.93;;
2538;SDS011;1280;49.760;9.664;2022-12-16T05:05:27;14.20;;;8.07;;
2538;SDS011;1280;49.760;9.664;2022-12-16T05:08:12;13.45;;;7.78;;
2538;SDS011;1280;49.760;9.664;2022-12-16T05:10:59;21.73;;;9.80;;
2538;SDS011;1280;49.760;9.664;2022-12-16T05:13:45;11.13;;;6.50;;
2538;SDS011;1280;49.760;9.664;2022-12-16T05:16:30;19.23;;;7.95;;
2538;SDS011;1280;49.760;9.664;2022-12-16T05:19:16;15.82;;;7.57;;
2538;SDS011;1280;49.760;9.664;2022-12-16T05:22:01;15.30;;;6.97;;
2538;SDS011;1280;49.760;9.664;2022-12-16T05:24:47;14.55;;;7.93;;
2538;SDS011;1280;49.760;9.664;2022-12-16T05:27:34;11.45;;;6.40;;
2538;SDS011;1280;49.760;9.664;2022-12-16T05:30:20;15.95;;;8.05;;
2538;SDS011;1280;49.760;9.664;2022-12-16T05:33:05;13.02;;;6.40;;
2538;SDS011;1280;49.760;9.664;2022-12-16T05:35:51;10.45;;;6.10;;
2538;SDS011;1280;49.760;9.664;2022-12-16T05:38:37;14.85;;;7.18;;
2538;SDS011;1280;49.760;9.664;2022-12-16T05:41:22;12.77;;;6.95;;
2538;SDS011;1280;49.760;9.664;2022-12-16T05:44:09;12.52;;;6.82;;
2538;SDS011;1280;49.760;9.664;2022-12-16T05:46:55;10.43;;;5.65;;
2538;SDS011;1280;49.760;9.664;2022-12-16T05:49:43;10.13;;;6.22;;
2538;SDS011;1280;49.760;9.664;2022-12-16T05:52:28;9.75;;;5.90;;
2538;SDS011;1280;49.760;9.664;2022-12-16T05:55:14;12.85;;;6.53;;
2538;SDS011;1280;49.760;9.664;2022-12-16T05:57:59;12.40;;;6.18;;
2538;SDS011;1280;49.760;9.664;2022-12-16T06:00:46;10.40;;;5.60;;
2538;SDS011;1280;49.760;9.664;2022-12-16T06:03:32;11.80;;;6.15;;
2538;SDS011;1280;49.760;9.664;2022-12-16T06:06:18;12.07;;;6.00;;
2538;SDS011;1280;49.760;9.664;2022-12-16T06:09:03;11.48;;;6.38;;
2538;SDS011;1280;49.760;9.664;2022-12-16T06:11:49;13.15;;;6.68;;
2538;SDS011;1280;49.760;9.664;2022-12-16T06:14:35;11.30;;;5.78;;
2538;SDS011;1280;49.760;9.664;2022-12-16T06:17:19;12.70;;;6.60;;
2538;SDS011;1280;49.760;9.664;2022-12-16T06:20:05;10.55;;;6.50;;
2538;SDS011;1280;49.760;9.664;2022-12-16T06:22:51;14.80;;;7.38;;
2538;SDS011;1280;49.760;9.664;2022-12-16T06:25:37;14.48;;;6.50;;
2538;SDS011;1280;49.760;9.664;2022-12-16T06:28:23;14.13;;;6.45;;
2538;SDS011;1280;49.760;9.664;2022-12-16T06:31:11;13.07;;;7.80;;
2538;SDS011;1280;49.760;9.664;2022-12-16T06:33:58;11.18;;;7.03;;
2538;SDS011;1280;49.760;9.664;2022-12-16T06:36:44;16.55;;;9.73;;
2538;SDS011;1280;49.760;9.664;2022-12-16T06:39:29;18.60;;;11.88;;
2538;SDS011;1280;49.760;9.664;2022-12-16T06:42:18;21.75;;;11.45;;
2538;SDS011;1280;49.760;9.664;2022-12-16T06:45:04;20.10;;;11.70;;
2538;SDS011;1280;49.760;9.664;2022-12-16T06:47:56;19.67;;;10.50;;
2538;SDS011;1280;49.760;9.664;2022-12-16T06:50:43;21.90;;;12.00;;
2538;SDS011;1280;49.760;9.664;2022-12-16T06:53:29;18.42;;;9.48;;
2538;SDS011;1280;49.760;9.664;2022-12-16T06:56:17;17.77;;;9.52;;
2538;SDS011;1280;49.760;9.664;2022-12-16T06:59:03;23.35;;;10.23;;
2538;SDS011;1280;49.760;9.664;2022-12-16T07:01:48;31.98;;;10.90;;
2538;SDS011;1280;49.760;9.664;2022-12-16T07:04:34;36.42;;;13.60;;
2538;SDS011;1280;49.760;9.664;2022-12-16T07:07:20;30.90;;;11.63;;
2538;SDS011;1280;49.760;9.664;2022-12-16T07:10:06;27.85;;;12.85;;
2538;SDS011;1280;49.760;9.664;2022-12-16T07:12:55;31.27;;;13.68;;
2538;SDS011;1280;49.760;9.664;2022-12-16T07:15:42;33.90;;;13.20;;
2538;SDS011;1280;49.760;9.664;2022-12-16T07:18:27;28.27;;;13.90;;
2538;SDS011;1280;49.760;9.664;2022-12-16T07:21:13;29.60;;;13.55;;
2538;SDS011;1280;49.760;9.664;2022-12-16T07:24:00;34.38;;;15.23;;
2538;SDS011;1280;49.760;9.664;2022-12-16T07:26:46;28.58;;;14.75;;
2538;SDS011;1280;49.760;9.664;2022-12-16T07:29:31;29.23;;;14.20;;
2538;SDS011;1280;49.760;9.664;2022-12-16T07:32:17;25.88;;;12.25;;
2538;SDS011;1280;49.760;9.664;2022-12-16T07:35:03;30.65;;;12.77;;
2538;SDS011;1280;49.760;9.664;2022-12-16T07:37:49;29.80;;;15.02;;
2538;SDS011;1280;49.760;9.664;2022-12-16T07:40:36;34.90;;;17.17;;
2538;SDS011;1280;49.760;9.664;2022-12-16T07:43:22;48.83;;;24.65;;
2538;SDS011;1280;49.760;9.664;2022-12-16T07:46:07;62.85;;;33.83;;
2538;SDS011;1280;49.760;9.664;2022-12-16T07:48:53;50.88;;;26.02;;
2538;SDS011;1280;49.760;9.664;2022-12-16T07:51:39;48.88;;;23.65;;
2538;SDS011;1280;49.760;9.664;2022-12-16T07:54:24;39.60;;;23.42;;
2538;SDS011;1280;49.760;9.664;2022-12-16T07:57:11;39.08;;;22.35;;
2538;SDS011;1280;49.760;9.664;2022-12-16T07:59:56;48.47;;;24.80;;
2538;SDS011;1280;49.760;9.664;2022-12-16T08:02:42;40.80;;;21.60;;
2538;SDS011;1280;49.760;9.664;2022-12-16T08:05:28;36.50;;;19.98;;
2538;SDS011;1280;49.760;9.664;2022-12-16T08:08:13;33.55;;;19.65;;
2538;SDS011;1280;49.760;9.664;2022-12-16T08:10:59;38.97;;;22.00;;
2538;SDS011;1280;49.760;9.664;2022-12-16T08:13:45;28.30;;;14.35;;
2538;SDS011;1280;49.760;9.664;2022-12-16T08:16:31;31.08;;;17.45;;
2538;SDS011;1280;49.760;9.664;2022-12-16T08:19:18;24.88;;;14.35;;
2538;SDS011;1280;49.760;9.664;2022-12-16T08:22:03;23.60;;;13.18;;
2538;SDS011;1280;49.760;9.664;2022-12-16T08:24:51;23.80;;;14.88;;
2538;SDS011;1280;49.760;9.664;2022-12-16T08:27:36;20.33;;;13.60;;
2538;SDS011;1280;49.760;9.664;2022-12-16T08:30:23;29.35;;;14.50;;
2538;SDS011;1280;49.760;9.664;2022-12-16T08:33:09;26.67;;;14.43;;
2538;SDS011;1280;49.760;9.664;2022-12-16T08:35:56;25.83;;;15.48;;
2538;SDS011;1280;49.760;9.664;2022-12-16T08:38:41;26.50;;;14.02;;
2538;SDS011;1280;49.760;9.664;2022-12-16T08:41:27;29.73;;;13.82;;
2538;SDS011;1280;49.760;9.664;2022-12-16T08:44:12;26.00;;;14.05;;
2538;SDS011;1280;49.760;9.664;2022-12-16T08:46:59;30.90;;;16.80;;
2538;SDS011;1280;49.760;9.664;2022-12-16T08:49:45;40.10;;;18.63;;
2538;SDS011;1280;49.760;9.664;2022-12-16T08:52:36;25.30;;;15.15;;
2538;SDS011;1280;49.760;9.664;2022-12-16T08:55:21;26.98;;;18.20;;
2538;SDS011;1280;49.760;9.664;2022-12-16T08:58:07;35.53;;;20.70;;
2538;SDS011;1280;49.760;9.664;2022-12-16T09:00:53;35.33;;;20.38;;
2538;SDS011;1280;49.760;9.664;2022-12-16T09:03:39;41.67;;;22.83;;
2538;SDS011;1280;49.760;9.664;2022-12-16T09:06:25;45.63;;;24.60;;
2538;SDS011;1280;49.760;9.664;2022-12-16T09:09:10;47.72;;;28.05;;
2538;SDS011;1280;49.760;9.664;2022-12-16T09:11:56;80.78;;;37.97;;
2538;SDS011;1280;49.760;9.664;2022-12-16T09:14:41;67.15;;;36.63;;
2538;SDS011;1280;49.760;9.664;2022-12-16T09:17:27;96.18;;;44.72;;
2538;SDS011;1280;49.760;9.664;2022-12-16T09:20:14;103.57;;;49.47;;
2538;SDS011;1280;49.760;9.664;2022-12-16T09:23:08;92.90;;;41.85;;
2538;SDS011;1280;49.760;9.664;2022-12-16T09:25:56;82.78;;;38.63;;
2538;SDS011;1280;49.760;9.664;2022-12-16T09:28:42;63.42;;;33.63;;
2538;SDS011;1280;49.760;9.664;2022-12-16T09:31:27;41.42;;;22.10;;
2538;SDS011;1280;49.760;9.664;2022-12-16T09:34:13;50.58;;;22.30;;
2538;SDS011;1280;49.760;9.664;2022-12-16T09:37:00;35.30;;;17.17;;
2538;SDS011;1280;49.760;9.664;2022-12-16T09:39:45;24.33;;;11.77;;
2538;SDS011;1280;49.760;9.664;2022-12-16T09:42:33;24.85;;;13.27;;
2538;SDS011;1280;49.760;9.664;2022-12-16T09:45:30;18.98;;;10.05;;
2538;SDS011;1280;49.760;9.664;2022-12-16T09:48:23;20.38;;;9.65;;
2538;SDS011;1280;49.760;9.664;2022-12-16T09:51:13;20.50;;;9.88;;
2538;SDS011;1280;49.760;9.664;2022-12-16T09:54:01;17.65;;;8.65;;
2538;SDS011;1280;49.760;9.664;2022-12-16T09:56:47;20.45;;;9.75;;
2538;SDS011;1280;49.760;9.664;2022-12-16T09:59:35;18.85;;;9.25;;
2538;SDS011;1280;49.760;9.664;2022-12-16T10:02:24;26.50;;;10.65;;
2538;SDS011;1280;49.760;9.664;2022-12-16T10:05:10;23.15;;;11.18;;
2538;SDS011;1280;49.760;9.664;2022-12-16T10:08:04;12.95;;;8.93;;
2538;SDS011;1280;49.760;9.664;2022-12-16T10:10:58;17.45;;;9.82;;
2538;SDS011;1280;49.760;9.664;2022-12-16T10:13:50;17.20;;;9.77;;
2538;SDS011;1280;49.760;9.664;2022-12-16T10:16:46;19.65;;;9.50;;
2538;SDS011;1280;49.760;9.664;2022-12-16T10:19:42;17.45;;;9.00;;
2538;SDS011;1280;49.760;9.664;2022-12-16T10:22:39;16.40;;;8.50;;
2538;SDS011;1280;49.760;9.664;2022-12-16T10:25:31;17.85;;;9.43;;
2538;SDS011;1280;49.760;9.664;2022-12-16T10:28:23;14.05;;;9.00;;
2538;SDS011;1280;49.760;9.664;2022-12-16T10:31:21;20.00;;;9.57;;
2538;SDS011;1280;49.760;9.664;2022-12-16T10:34:23;20.25;;;9.93;;
2538;SDS011;1280;49.760;9.664;2022-12-16T10:37:12;15.85;;;9.00;;
2538;SDS011;1280;49.760;9.664;2022-12-16T10:40:01;18.00;;;10.00;;
2538;SDS011;1280;49.760;9.664;2022-12-16T10:42:48;15.48;;;9.32;;
2538;SDS011;1280;49.760;9.664;2022-12-16T10:45:43;20.65;;;9.15;;
2538;SDS011;1280;49.760;9.664;2022-12-16T10:48:33;14.55;;;8.98;;
2538;SDS011;1280;49.760;9.664;2022-12-16T10:51:22;16.60;;;9.45;;
2538;SDS011;1280;49.760;9.664;2022-12-16T10:54:21;15.50;;;8.95;;
2538;SDS011;1280;49.760;9.664;2022-12-16T10:57:19;18.77;;;9.85;;
2538;SDS011;1280;49.760;9.664;2022-12-16T11:00:16;20.92;;;10.43;;
2538;SDS011;1280;49.760;9.664;2022-12-16T11:03:18;15.90;;;8.93;;
2538;SDS011;1280;49.760;9.664;2022-12-16T11:06:05;22.98;;;10.60;;
2538;SDS011;1280;49.760;9.664;2022-12-16T11:08:52;20.02;;;10.63;;
2538;SDS011;1280;49.760;9.664;2022-12-16T11:11:38;23.75;;;11.23;;
2538;SDS011;1280;49.760;9.664;2022-12-16T11:14:24;21.50;;;9.90;;
2538;SDS011;1280;49.760;9.664;2022-12-16T11:17:30;22.20;;;11.00;;
2538;SDS011;1280;49.760;9.664;2022-12-16T11:20:18;23.85;;;11.25;;
2538;SDS011;1280;49.760;9.664;2022-12-16T11:23:14;17.48;;;10.85;;
2538;SDS011;1280;49.760;9.664;2022-12-16T11:26:03;17.65;;;9.88;;
2538;SDS011;1280;49.760;9.664;2022-12-16T11:29:02;20.20;;;11.60;;
2538;SDS011;1280;49.760;9.664;2022-12-16T11:31:50;33.72;;;11.30;;
2538;SDS011;1280;49.760;9.664;2022-12-16T11:34:40;20.70;;;10.85;;
2538;SDS011;1280;49.760;9.664;2022-12-16T11:37:28;19.38;;;11.13;;
2538;SDS011;1280;49.760;9.664;2022-12-16T11:40:17;20.15;;;11.02;;
2538;SDS011;1280;49.760;9.664;2022-12-16T11:43:03;20.27;;;10.95;;
2538;SDS011;1280;49.760;9.664;2022-12-16T11:45:50;19.55;;;11.43;;
2538;SDS011;1280;49.760;9.664;2022-12-16T11:48:38;16.20;;;9.70;;
2538;SDS011;1280;49.760;9.664;2022-12-16T11:51:29;19.23;;;10.73;;
2538;SDS011;1280;49.760;9.664;2022-12-16T11:54:27;19.75;;;11.23;;
2538;SDS011;1280;49.760;9.664;2022-12-16T11:57:18;17.33;;;10.65;;
2538;SDS011;1280;49.760;9.664;2022-12-16T12:00:19;17.17;;;9.90;;
2538;SDS011;1280;49.760;9.664;2022-12-16T12:03:05;23.35;;;10.65;;
2538;SDS011;1280;49.760;9.664;2022-12-16T12:05:56;17.77;;;9.95;;
2538;SDS011;1280;49.760;9.664;2022-12-16T12:08:47;22.70;;;9.35;;
2538;SDS011;1280;49.760;9.664;2022-12-16T12:11:41;18.08;;;10.13;;
2538;SDS011;1280;49.760;9.664;2022-12-16T12:14:34;23.35;;;9.65;;
2538;SDS011;1280;49.760;9.664;2022-12-16T12:17:29;18.10;;;9.70;;
2538;SDS011;1280;49.760;9.664;2022-12-16T12:20:29;18.63;;;10.15;;
2538;SDS011;1280;49.760;9.664;2022-12-16T12:23:27;15.15;;;9.32;;
2538;SDS011;1280;49.760;9.664;2022-12-16T12:26:25;16.95;;;9.30;;
2538;SDS011;1280;49.760;9.664;2022-12-16T12:29:13;17.88;;;9.98;;
2538;SDS011;1280;49.760;9.664;2022-12-16T12:32:05;16.42;;;9.35;;
2538;SDS011;1280;49.760;9.664;2022-12-16T12:35:03;19.80;;;10.07;;
2538;SDS011;1280;49.760;9.664;2022-12-16T12:38:01;16.70;;;8.73;;
2538;SDS011;1280;49.760;9.664;2022-12-16T12:41:10;14.13;;;9.05;;
2538;SDS011;1280;49.760;9.664;2022-12-16T12:44:04;15.55;;;10.15;;
2538;SDS011;1280;49.760;9.664;2022-12-16T12:47:14;17.13;;;9.63;;
2538;SDS011;1280;49.760;9.664;2022-12-16T12:50:02;14.80;;;8.82;;
2538;SDS011;1280;49.760;9.664;2022-12-16T12:52:57;16.33;;;9.82;;
2538;SDS011;1280;49.760;9.664;2022-12-16T12:55:54;18.55;;;9.50;;
2538;SDS011;1280;49.760;9.664;2022-12-16T12:58:47;18.65;;;10.45;;
2538;SDS011;1280;49.760;9.664;2022-12-16T13:01:35;19.13;;;9.73;;
2538;SDS011;1280;49.760;9.664;2022-12-16T13:04:41;14.98;;;9.73;;
2538;SDS011;1280;49.760;9.664;2022-12-16T13:07:30;19.30;;;10.75;;
2538;SDS011;1280;49.760;9.664;2022-12-16T13:10:35;15.85;;;9.20;;
2538;SDS011;1280;49.760;9.664;2022-12-16T13:13:28;18.95;;;10.30;;
2538;SDS011;1280;49.760;9.664;2022-12-16T13:19:53;18.70;;;11.68;;
2538;SDS011;1280;49.760;9.664;2022-12-16T13:22:42;19.25;;;10.80;;
2538;SDS011;1280;49.760;9.664;2022-12-16T13:25:33;17.88;;;10.90;;
2538;SDS011;1280;49.760;9.664;2022-12-16T13:28:23;16.70;;;9.75;;
2538;SDS011;1280;49.760;9.664;2022-12-16T13:31:10;21.65;;;11.27;;
2538;SDS011;1280;49.760;9.664;2022-12-16T13:33:58;18.63;;;10.68;;
2538;SDS011;1280;49.760;9.664;2022-12-16T13:36:55;17.67;;;10.73;;
2538;SDS011;1280;49.760;9.664;2022-12-16T13:39:59;22.13;;;12.00;;
2538;SDS011;1280;49.760;9.664;2022-12-16T13:42:49;19.90;;;11.55;;
2538;SDS011;1280;49.760;9.664;2022-12-16T13:45:38;19.17;;;10.50;;
2538;SDS011;1280;49.760;9.664;2022-12-16T13:48:31;19.75;;;11.57;;
2538;SDS011;1280;49.760;9.664;2022-12-16T13:55:02;19.75;;;11.25;;
2538;SDS011;1280;49.760;9.664;2022-12-16T13:58:01;16.80;;;11.07;;
2538;SDS011;1280;49.760;9.664;2022-12-16T14:00:55;21.10;;;11.50;;
2538;SDS011;1280;49.760;9.664;2022-12-16T14:03:46;19.95;;;10.90;;
2538;SDS011;1280;49.760;9.664;2022-12-16T14:06:33;23.08;;;12.13;;
2538;SDS011;1280;49.760;9.664;2022-12-16T14:09:26;22.63;;;11.73;;
2538;SDS011;1280;49.760;9.664;2022-12-16T14:12:23;20.77;;;10.00;;
2538;SDS011;1280;49.760;9.664;2022-12-16T14:15:28;24.05;;;11.73;;
2538;SDS011;1280;49.760;9.664;2022-12-16T14:18:24;21.30;;;11.65;;
2538;SDS011;1280;49.760;9.664;2022-12-16T14:21:19;23.98;;;11.32;;
2538;SDS011;1280;49.760;9.664;2022-12-16T14:24:11;21.38;;;11.75;;
2538;SDS011;1280;49.760;9.664;2022-12-16T14:27:08;22.50;;;12.63;;
2538;SDS011;1280;49.760;9.664;2022-12-16T14:30:02;19.00;;;11.80;;
2538;SDS011;1280;49.760;9.664;2022-12-16T14:32:59;22.20;;;12.30;;
2538;SDS011;1280;49.760;9.664;2022-12-16T14:35:47;17.45;;;10.77;;
2538;SDS011;1280;49.760;9.664;2022-12-16T14:38:34;20.95;;;11.82;;
2538;SDS011;1280;49.760;9.664;2022-12-16T14:41:20;20.75;;;11.82;;
2538;SDS011;1280;49.760;9.664;2022-12-16T14:44:14;19.67;;;12.43;;
2538;SDS011;1280;49.760;9.664;2022-12-16T14:47:03;21.63;;;12.63;;
2538;SDS011;1280;49.760;9.664;2022-12-16T14:49:50;22.17;;;12.60;;
2538;SDS011;1280;49.760;9.664;2022-12-16T14:52:37;26.05;;;14.90;;
2538;SDS011;1280;49.760;9.664;2022-12-16T14:55:25;23.00;;;13.02;;
2538;SDS011;1280;49.760;9.664;2022-12-16T14:58:13;24.92;;;14.43;;
2538;SDS011;1280;49.760;9.664;2022-12-16T15:01:00;25.55;;;14.50;;
2538;SDS011;1280;49.760;9.664;2022-12-16T15:03:49;22.58;;;13.23;;
2538;SDS011;1280;49.760;9.664;2022-12-16T15:06:36;23.85;;;13.25;;
2538;SDS011;1280;49.760;9.664;2022-12-16T15:09:26;21.48;;;13.88;;
2538;SDS011;1280;49.760;9.664;2022-12-16T15:12:14;29.45;;;15.80;;
2538;SDS011;1280;49.760;9.664;2022-12-16T15:15:05;25.20;;;14.23;;
2538;SDS011;1280;49.760;9.664;2022-12-16T15:17:55;24.02;;;13.90;;
2538;SDS011;1280;49.760;9.664;2022-12-16T15:20:46;24.00;;;14.82;;
2538;SDS011;1280;49.760;9.664;2022-12-16T15:23:37;24.92;;;13.95;;
2538;SDS011;1280;49.760;9.664;2022-12-16T15:26:25;24.38;;;13.88;;
2538;SDS011;1280;49.760;9.664;2022-12-16T15:29:28;29.13;;;15.35;;
2538;SDS011;1280;49.760;9.664;2022-12-16T15:32:30;23.95;;;12.57;;
2538;SDS011;1280;49.760;9.664;2022-12-16T15:35:24;30.52;;;14.93;;
2538;SDS011;1280;49.760;9.664;2022-12-16T15:38:14;24.17;;;13.70;;
2538;SDS011;1280;49.760;9.664;2022-12-16T15:41:13;21.50;;;13.00;;
2538;SDS011;1280;49.760;9.664;2022-12-16T15:44:04;25.58;;;13.60;;
2538;SDS011;1280;49.760;9.664;2022-12-16T15:46:56;24.77;;;15.55;;
2538;SDS011;1280;49.760;9.664;2022-12-16T15:49:43;23.67;;;14.30;;
2538;SDS011;1280;49.760;9.664;2022-12-16T15:52:34;24.80;;;14.25;;
2538;SDS011;1280;49.760;9.664;2022-12-16T15:55:24;26.02;;;13.90;;
2538;SDS011;1280;49.760;9.664;2022-12-16T15:58:13;23.92;;;15.13;;
2538;SDS011;1280;49.760;9.664;2022-12-16T16:01:03;24.88;;;14.80;;
2538;SDS011;1280;49.760;9.664;2022-12-16T16:03:52;22.52;;;14.32;;
2538;SDS011;1280;49.760;9.664;2022-12-16T16:06:40;23.98;;;14.35;;
2538;SDS011;1280;49.760;9.664;2022-12-16T16:09:29;27.42;;;15.32;;
2538;SDS011;1280;49.760;9.664;2022-12-16T16:12:17;27.27;;;15.25;;
2538;SDS011;1280;49.760;9.664;2022-12-16T16:15:04;29.90;;;16.95;;
2538;SDS011;1280;49.760;9.664;2022-12-16T16:17:53;34.63;;;18.70;;
2538;SDS011;1280;49.760;9.664;2022-12-16T16:20:40;29.10;;;17.02;;
2538;SDS011;1280;49.760;9.664;2022-12-16T16:23:26;29.42;;;18.30;;
2538;SDS011;1280;49.760;9.664;2022-12-16T16:26:12;32.67;;;18.17;;
2538;SDS011;1280;49.760;9.664;2022-12-16T16:29:00;32.92;;;17.35;;
2538;SDS011;1280;49.760;9.664;2022-12-16T16:31:46;31.38;;;16.42;;
2538;SDS011;1280;49.760;9.664;2022-12-16T16:34:32;30.40;;;15.75;;
2538;SDS011;1280;49.760;9.664;2022-12-16T16:37:18;23.88;;;13.95;;
2538;SDS011;1280;49.760;9.664;2022-12-16T16:40:10;24.08;;;15.57;;
2538;SDS011;1280;49.760;9.664;2022-12-16T16:43:01;28.58;;;16.60;;
2538;SDS011;1280;49.760;9.664;2022-12-16T16:45:51;26.02;;;14.30;;
2538;SDS011;1280;49.760;9.664;2022-12-16T16:48:38;22.45;;;13.02;;
2538;SDS011;1280;49.760;9.664;2022-12-16T16:51:25;25.38;;;14.77;;
2538;SDS011;1280;49.760;9.664;2022-12-16T16:54:10;25.70;;;14.65;;